Catàleg de serveis del Meteocat
Campanya meteocatpedra

Dades de l'estació automàtica Sant Llorenç Savall

?
?
Resum diari 21:30 TU
Dades diàries de l'estació meteorològica
Temperatura mitjana 5.9 °C
Temperatura màxima 11.5 °C 14:56 TU
Temperatura mínima 1.4 °C 21:58 TU
Humitat relativa mitjana 88%
Precipitació acumulada 0.0 mm
Ratxa màxima del vent (10 m) 18.4 km/h - 36º 2:44 TU

El tram horari està expressat en Temps Universal (TU). Cal sumar una hora en horari d'hivern i dues en horari d'estiu per passar a l'hora oficial.

Sant Llorenç Savall

Metadades estació meteorol´gica
Municipi Sant Llorenç Savall
Comarca Vallès Occidental
Altitud 528 m
Data alta 25.03.1998
Estat actual Operativa
Dades de període
Període
TU
TM
°C
TX
°C
TN
°C
HRM
%
PPT
mm
VVM (10 m)
km/h
DVM (10 m)
graus
VVX (10 m)
km/h
00:00 - 00:30 6.7 6.8 6.5 77 0.0 5.0 58 15.8
00:30 - 01:00 6.7 6.8 6.4 77 0.0 4.7 53 13.7
01:00 - 01:30 6.0 6.8 5.0 80 0.0 5.8 64 14.4
01:30 - 02:00 4.1 5.0 3.4 91 0.0 2.9 34 7.6
02:00 - 02:30 4.4 5.2 3.5 93 0.0 7.6 42 13.3
02:30 - 03:00 5.1 5.5 4.7 90 0.0 9.4 40 18.4
03:00 - 03:30 4.4 5.2 3.2 91 0.0 2.2 3 10.4
03:30 - 04:00 2.7 3.2 2.4 98 0.0 1.4 39 6.1
04:00 - 04:30 2.3 2.4 2.2 100 0.0 0.7 41 4.0
04:30 - 05:00 3.2 3.7 2.4 100 0.0 2.2 27 6.1
05:00 - 05:30 3.5 3.6 3.4 99 0.0 1.1 51 4.7
05:30 - 06:00 3.4 3.8 3.2 99 0.0 1.1 48 4.0
06:00 - 06:30 4.0 4.2 3.8 98 0.0 0.4 5 2.9
06:30 - 07:00 4.5 4.7 4.2 98 0.0 0.7 224 3.6
07:00 - 07:30 5.0 5.5 4.6 96 0.0 0.7 49 4.3
07:30 - 08:00 5.7 6.0 5.5 94 0.0 0.4 227 2.9
08:00 - 08:30 6.3 6.3 6.1 92 0.0 0.0 233 1.8
08:30 - 09:00 6.5 6.7 6.3 93 0.0 0.7 217 3.2
09:00 - 09:30 6.7 7.0 6.7 93 0.0 0.4 252 2.9
09:30 - 10:00 8.3 9.0 7.1 85 0.0 1.1 20 7.6
10:00 - 10:30 8.3 8.8 8.0 76 0.0 5.8 64 14.4
10:30 - 11:00 8.3 8.5 8.1 77 0.0 5.4 58 11.2
11:00 - 11:30 9.0 9.2 8.6 76 0.0 4.0 64 10.1
11:30 - 12:00 9.6 9.9 9.1 72 0.0 2.5 69 11.2
12:00 - 12:30 10.2 10.5 9.9 68 0.0 2.9 179 13.3
12:30 - 13:00 10.0 10.5 9.6 67 0.0 4.0 220 13.3
13:00 - 13:30 10.4 10.9 9.7 66 0.0 3.6 195 15.8
13:30 - 14:00 10.5 11.0 9.7 67 0.0 2.5 32 9.0
14:00 - 14:30 10.9 11.4 10.4 66 0.0 3.2 231 11.9
14:30 - 15:00 11.1 11.5 11.0 64 0.0 3.2 61 9.4
15:00 - 15:30 9.6 11.3 8.2 73 0.0 2.2 195 7.9
15:30 - 16:00 8.8 9.5 8.3 76 0.0 3.2 226 12.2
16:00 - 16:30 6.9 8.2 5.6 86 0.0 0.7 122 4.3
16:30 - 17:00 4.9 5.6 4.5 94 0.0 2.2 40 7.6
17:00 - 17:30 4.4 4.5 4.1 97 0.0 2.2 38 6.5
17:30 - 18:00 3.9 4.2 3.5 97 0.0 1.4 12 5.8
18:00 - 18:30 3.4 3.7 3.2 99 0.0 2.2 18 6.5
18:30 - 19:00 3.2 3.5 3.1 99 0.0 2.2 41 6.5
19:00 - 19:30 3.4 3.7 3.1 99 0.0 2.2 321 7.6
19:30 - 20:00 3.0 3.4 2.7 100 0.0 1.1 29 5.8
20:00 - 20:30 2.9 3.2 2.7 100 0.0 1.4 188 6.1
20:30 - 21:00 3.1 3.4 2.9 100 0.0 0.7 298 5.4
21:00 - 21:30 2.7 3.0 2.3 100 0.0 1.4 46 7.6
21:30 - 22:00 1.8 2.3 1.4 100 0.0 0.4 50 4.3

Les dades en taronja només han passat un control de qualitat automàtic. Resta pendent la seva validació definitiva.